sensor_id;sensor_type;location;lat;lon;timestamp;P1;durP1;ratioP1;P2;durP2;ratioP2
41468;SDS011;27206;47.032;15.484;2023-03-14T00:00:34;6.97;;;3.55;;
41468;SDS011;27206;47.032;15.484;2023-03-14T00:03:00;8.07;;;3.55;;
41468;SDS011;27206;47.032;15.484;2023-03-14T00:05:26;7.53;;;3.30;;
41468;SDS011;27206;47.032;15.484;2023-03-14T00:07:52;6.55;;;3.35;;
41468;SDS011;27206;47.032;15.484;2023-03-14T00:10:17;9.57;;;3.30;;
41468;SDS011;27206;47.032;15.484;2023-03-14T00:12:43;7.13;;;3.15;;
41468;SDS011;27206;47.032;15.484;2023-03-14T00:15:10;6.43;;;3.28;;
41468;SDS011;27206;47.032;15.484;2023-03-14T00:17:36;7.05;;;3.45;;
41468;SDS011;27206;47.032;15.484;2023-03-14T00:20:03;10.32;;;3.92;;
41468;SDS011;27206;47.032;15.484;2023-03-14T00:22:37;10.07;;;3.72;;
41468;SDS011;27206;47.032;15.484;2023-03-14T00:25:04;8.52;;;4.70;;
41468;SDS011;27206;47.032;15.484;2023-03-14T00:27:30;10.43;;;4.13;;
41468;SDS011;27206;47.032;15.484;2023-03-14T00:29:56;8.20;;;4.10;;
41468;SDS011;27206;47.032;15.484;2023-03-14T00:32:22;9.38;;;3.92;;
41468;SDS011;27206;47.032;15.484;2023-03-14T00:34:48;10.32;;;3.83;;
41468;SDS011;27206;47.032;15.484;2023-03-14T00:37:14;11.77;;;4.10;;
41468;SDS011;27206;47.032;15.484;2023-03-14T00:39:39;5.63;;;3.28;;
41468;SDS011;27206;47.032;15.484;2023-03-14T00:42:05;7.85;;;3.20;;
41468;SDS011;27206;47.032;15.484;2023-03-14T00:44:31;8.52;;;3.67;;
41468;SDS011;27206;47.032;15.484;2023-03-14T00:46:57;8.50;;;3.25;;
41468;SDS011;27206;47.032;15.484;2023-03-14T00:49:22;7.45;;;3.00;;
41468;SDS011;27206;47.032;15.484;2023-03-14T00:51:48;7.53;;;3.30;;
41468;SDS011;27206;47.032;15.484;2023-03-14T00:54:14;8.38;;;3.40;;
41468;SDS011;27206;47.032;15.484;2023-03-14T00:56:40;8.52;;;3.10;;
41468;SDS011;27206;47.032;15.484;2023-03-14T00:59:05;8.57;;;3.58;;
41468;SDS011;27206;47.032;15.484;2023-03-14T01:01:31;11.55;;;3.25;;
41468;SDS011;27206;47.032;15.484;2023-03-14T01:03:56;6.35;;;3.20;;
41468;SDS011;27206;47.032;15.484;2023-03-14T01:06:23;6.95;;;3.65;;
41468;SDS011;27206;47.032;15.484;2023-03-14T01:08:50;7.70;;;3.15;;
41468;SDS011;27206;47.032;15.484;2023-03-14T01:11:21;5.47;;;2.83;;
41468;SDS011;27206;47.032;15.484;2023-03-14T01:13:47;7.78;;;3.42;;
41468;SDS011;27206;47.032;15.484;2023-03-14T01:16:14;6.28;;;3.03;;
41468;SDS011;27206;47.032;15.484;2023-03-14T01:18:40;8.90;;;3.67;;
41468;SDS011;27206;47.032;15.484;2023-03-14T01:21:19;6.38;;;3.30;;
41468;SDS011;27206;47.032;15.484;2023-03-14T01:23:47;8.13;;;3.20;;
41468;SDS011;27206;47.032;15.484;2023-03-14T01:26:15;5.47;;;3.20;;
41468;SDS011;27206;47.032;15.484;2023-03-14T01:28:44;5.35;;;2.55;;
41468;SDS011;27206;47.032;15.484;2023-03-14T01:31:10;5.18;;;2.45;;
41468;SDS011;27206;47.032;15.484;2023-03-14T01:33:37;5.97;;;2.38;;
41468;SDS011;27206;47.032;15.484;2023-03-14T01:36:03;6.40;;;2.30;;
41468;SDS011;27206;47.032;15.484;2023-03-14T01:38:29;7.40;;;2.70;;
41468;SDS011;27206;47.032;15.484;2023-03-14T01:40:56;5.90;;;2.60;;
41468;SDS011;27206;47.032;15.484;2023-03-14T01:43:22;8.23;;;2.92;;
41468;SDS011;27206;47.032;15.484;2023-03-14T01:48:35;6.15;;;2.25;;
41468;SDS011;27206;47.032;15.484;2023-03-14T01:51:08;5.88;;;2.42;;
41468;SDS011;27206;47.032;15.484;2023-03-14T01:53:37;4.03;;;1.88;;
41468;SDS011;27206;47.032;15.484;2023-03-14T01:56:04;5.43;;;2.28;;
41468;SDS011;27206;47.032;15.484;2023-03-14T01:58:33;5.47;;;2.13;;
41468;SDS011;27206;47.032;15.484;2023-03-14T02:00:59;6.03;;;2.58;;
41468;SDS011;27206;47.032;15.484;2023-03-14T02:03:27;7.07;;;2.35;;
41468;SDS011;27206;47.032;15.484;2023-03-14T02:05:55;7.50;;;2.20;;
41468;SDS011;27206;47.032;15.484;2023-03-14T02:08:24;4.32;;;2.08;;
41468;SDS011;27206;47.032;15.484;2023-03-14T02:10:53;3.88;;;2.08;;
41468;SDS011;27206;47.032;15.484;2023-03-14T02:13:19;6.55;;;2.67;;
41468;SDS011;27206;47.032;15.484;2023-03-14T02:15:46;3.88;;;2.28;;
41468;SDS011;27206;47.032;15.484;2023-03-14T02:18:12;4.40;;;2.20;;
41468;SDS011;27206;47.032;15.484;2023-03-14T02:26:11;4.30;;;2.30;;
41468;SDS011;27206;47.032;15.484;2023-03-14T02:28:53;8.27;;;2.42;;
41468;SDS011;27206;47.032;15.484;2023-03-14T02:31:19;4.45;;;2.28;;
41468;SDS011;27206;47.032;15.484;2023-03-14T02:33:46;4.50;;;2.15;;
41468;SDS011;27206;47.032;15.484;2023-03-14T02:36:13;4.13;;;2.13;;
41468;SDS011;27206;47.032;15.484;2023-03-14T02:41:06;6.40;;;2.22;;
41468;SDS011;27206;47.032;15.484;2023-03-14T02:43:32;6.25;;;2.75;;
41468;SDS011;27206;47.032;15.484;2023-03-14T02:45:57;6.40;;;2.72;;
41468;SDS011;27206;47.032;15.484;2023-03-14T02:48:33;6.57;;;2.20;;
41468;SDS011;27206;47.032;15.484;2023-03-14T02:51:03;7.13;;;2.10;;
41468;SDS011;27206;47.032;15.484;2023-03-14T02:53:32;4.65;;;2.05;;
41468;SDS011;27206;47.032;15.484;2023-03-14T02:56:00;3.30;;;1.98;;
41468;SDS011;27206;47.032;15.484;2023-03-14T02:58:26;4.68;;;2.03;;
41468;SDS011;27206;47.032;15.484;2023-03-14T03:00:52;3.70;;;1.95;;
41468;SDS011;27206;47.032;15.484;2023-03-14T03:03:18;3.58;;;1.75;;
41468;SDS011;27206;47.032;15.484;2023-03-14T03:05:47;3.40;;;1.70;;
41468;SDS011;27206;47.032;15.484;2023-03-14T03:08:15;2.55;;;1.35;;
41468;SDS011;27206;47.032;15.484;2023-03-14T03:10:41;4.03;;;1.52;;
41468;SDS011;27206;47.032;15.484;2023-03-14T03:13:06;4.47;;;1.70;;
41468;SDS011;27206;47.032;15.484;2023-03-14T03:15:32;6.70;;;1.70;;
41468;SDS011;27206;47.032;15.484;2023-03-14T03:17:58;3.03;;;1.80;;
41468;SDS011;27206;47.032;15.484;2023-03-14T03:20:23;5.15;;;2.00;;
41468;SDS011;27206;47.032;15.484;2023-03-14T03:22:49;4.93;;;1.77;;
41468;SDS011;27206;47.032;15.484;2023-03-14T03:25:15;7.82;;;2.17;;
41468;SDS011;27206;47.032;15.484;2023-03-14T03:27:41;3.50;;;1.70;;
41468;SDS011;27206;47.032;15.484;2023-03-14T03:30:07;3.95;;;1.80;;
41468;SDS011;27206;47.032;15.484;2023-03-14T03:32:33;4.35;;;1.92;;
41468;SDS011;27206;47.032;15.484;2023-03-14T03:34:59;5.13;;;2.20;;
41468;SDS011;27206;47.032;15.484;2023-03-14T03:37:25;3.63;;;1.90;;
41468;SDS011;27206;47.032;15.484;2023-03-14T03:39:51;3.60;;;1.92;;
41468;SDS011;27206;47.032;15.484;2023-03-14T03:42:17;3.40;;;1.83;;
41468;SDS011;27206;47.032;15.484;2023-03-14T03:44:43;3.50;;;2.00;;
41468;SDS011;27206;47.032;15.484;2023-03-14T03:47:09;5.30;;;2.30;;
41468;SDS011;27206;47.032;15.484;2023-03-14T03:49:35;5.72;;;2.30;;
41468;SDS011;27206;47.032;15.484;2023-03-14T03:52:00;4.32;;;2.13;;
41468;SDS011;27206;47.032;15.484;2023-03-14T03:54:26;4.88;;;2.10;;
41468;SDS011;27206;47.032;15.484;2023-03-14T03:56:54;6.93;;;2.20;;
41468;SDS011;27206;47.032;15.484;2023-03-14T03:59:20;4.70;;;2.63;;
41468;SDS011;27206;47.032;15.484;2023-03-14T04:01:46;6.30;;;2.17;;
41468;SDS011;27206;47.032;15.484;2023-03-14T04:04:11;4.38;;;2.10;;
41468;SDS011;27206;47.032;15.484;2023-03-14T04:06:37;6.60;;;2.63;;
41468;SDS011;27206;47.032;15.484;2023-03-14T04:09:03;5.63;;;2.50;;
41468;SDS011;27206;47.032;15.484;2023-03-14T04:11:29;4.18;;;2.13;;
41468;SDS011;27206;47.032;15.484;2023-03-14T04:13:55;3.17;;;1.75;;
41468;SDS011;27206;47.032;15.484;2023-03-14T04:16:21;5.25;;;2.25;;
41468;SDS011;27206;47.032;15.484;2023-03-14T04:18:48;6.07;;;2.15;;
41468;SDS011;27206;47.032;15.484;2023-03-14T04:21:14;5.68;;;2.40;;
41468;SDS011;27206;47.032;15.484;2023-03-14T04:23:40;5.65;;;2.38;;
41468;SDS011;27206;47.032;15.484;2023-03-14T04:26:06;5.25;;;2.38;;
41468;SDS011;27206;47.032;15.484;2023-03-14T04:28:31;3.55;;;2.08;;
41468;SDS011;27206;47.032;15.484;2023-03-14T04:30:57;5.57;;;2.83;;
41468;SDS011;27206;47.032;15.484;2023-03-14T04:33:23;4.65;;;2.15;;
41468;SDS011;27206;47.032;15.484;2023-03-14T04:35:48;3.38;;;1.77;;
41468;SDS011;27206;47.032;15.484;2023-03-14T04:38:18;4.80;;;2.05;;
41468;SDS011;27206;47.032;15.484;2023-03-14T04:40:44;4.35;;;1.92;;
41468;SDS011;27206;47.032;15.484;2023-03-14T04:43:10;6.10;;;2.10;;
41468;SDS011;27206;47.032;15.484;2023-03-14T04:45:36;4.85;;;1.95;;
41468;SDS011;27206;47.032;15.484;2023-03-14T04:48:02;3.45;;;1.63;;
41468;SDS011;27206;47.032;15.484;2023-03-14T04:50:28;4.10;;;1.60;;
41468;SDS011;27206;47.032;15.484;2023-03-14T04:52:54;5.53;;;1.70;;
41468;SDS011;27206;47.032;15.484;2023-03-14T04:55:19;3.58;;;1.70;;
41468;SDS011;27206;47.032;15.484;2023-03-14T04:57:45;3.58;;;1.60;;
41468;SDS011;27206;47.032;15.484;2023-03-14T05:00:11;3.92;;;1.75;;
41468;SDS011;27206;47.032;15.484;2023-03-14T05:02:37;2.85;;;1.17;;
41468;SDS011;27206;47.032;15.484;2023-03-14T05:05:02;4.47;;;1.80;;
41468;SDS011;27206;47.032;15.484;2023-03-14T05:07:28;5.60;;;1.92;;
41468;SDS011;27206;47.032;15.484;2023-03-14T05:09:54;3.30;;;1.70;;
41468;SDS011;27206;47.032;15.484;2023-03-14T05:12:20;2.85;;;1.58;;
41468;SDS011;27206;47.032;15.484;2023-03-14T05:14:46;2.33;;;1.40;;
41468;SDS011;27206;47.032;15.484;2023-03-14T05:17:11;2.05;;;1.38;;
41468;SDS011;27206;47.032;15.484;2023-03-14T05:19:39;4.78;;;1.58;;
41468;SDS011;27206;47.032;15.484;2023-03-14T05:22:05;4.65;;;1.60;;
41468;SDS011;27206;47.032;15.484;2023-03-14T05:24:31;3.42;;;1.45;;
41468;SDS011;27206;47.032;15.484;2023-03-14T05:26:57;4.60;;;1.80;;
41468;SDS011;27206;47.032;15.484;2023-03-14T05:29:23;8.25;;;2.22;;
41468;SDS011;27206;47.032;15.484;2023-03-14T05:31:48;4.00;;;2.00;;
41468;SDS011;27206;47.032;15.484;2023-03-14T05:34:14;3.58;;;1.77;;
41468;SDS011;27206;47.032;15.484;2023-03-14T05:36:39;3.75;;;1.88;;
41468;SDS011;27206;47.032;15.484;2023-03-14T05:39:05;3.40;;;1.67;;
41468;SDS011;27206;47.032;15.484;2023-03-14T05:41:31;4.30;;;1.70;;
41468;SDS011;27206;47.032;15.484;2023-03-14T05:43:56;4.38;;;2.33;;
41468;SDS011;27206;47.032;15.484;2023-03-14T05:46:22;4.55;;;1.90;;
41468;SDS011;27206;47.032;15.484;2023-03-14T05:48:47;5.20;;;2.10;;
41468;SDS011;27206;47.032;15.484;2023-03-14T05:51:13;6.45;;;2.28;;
41468;SDS011;27206;47.032;15.484;2023-03-14T05:53:39;4.30;;;2.30;;
41468;SDS011;27206;47.032;15.484;2023-03-14T05:56:05;8.40;;;2.55;;
41468;SDS011;27206;47.032;15.484;2023-03-14T05:58:31;3.33;;;1.75;;
41468;SDS011;27206;47.032;15.484;2023-03-14T06:00:56;2.53;;;1.30;;
41468;SDS011;27206;47.032;15.484;2023-03-14T06:03:22;2.65;;;1.27;;
41468;SDS011;27206;47.032;15.484;2023-03-14T06:05:51;2.67;;;1.60;;
41468;SDS011;27206;47.032;15.484;2023-03-14T06:08:17;2.30;;;1.50;;
41468;SDS011;27206;47.032;15.484;2023-03-14T06:10:42;3.60;;;2.08;;
41468;SDS011;27206;47.032;15.484;2023-03-14T06:13:08;4.15;;;1.67;;
41468;SDS011;27206;47.032;15.484;2023-03-14T06:15:33;4.47;;;1.73;;
41468;SDS011;27206;47.032;15.484;2023-03-14T06:18:00;6.10;;;1.52;;
41468;SDS011;27206;47.032;15.484;2023-03-14T06:20:26;3.40;;;1.73;;
41468;SDS011;27206;47.032;15.484;2023-03-14T06:22:52;3.25;;;1.70;;
41468;SDS011;27206;47.032;15.484;2023-03-14T06:25:17;3.75;;;1.60;;
41468;SDS011;27206;47.032;15.484;2023-03-14T06:27:43;2.83;;;1.42;;
41468;SDS011;27206;47.032;15.484;2023-03-14T06:30:09;2.90;;;1.80;;
41468;SDS011;27206;47.032;15.484;2023-03-14T06:32:35;4.45;;;1.83;;
41468;SDS011;27206;47.032;15.484;2023-03-14T06:35:01;2.42;;;1.33;;
41468;SDS011;27206;47.032;15.484;2023-03-14T06:37:27;6.00;;;2.05;;
41468;SDS011;27206;47.032;15.484;2023-03-14T06:39:54;3.92;;;1.88;;
41468;SDS011;27206;47.032;15.484;2023-03-14T06:42:20;3.63;;;1.92;;
41468;SDS011;27206;47.032;15.484;2023-03-14T06:44:45;5.53;;;1.85;;
41468;SDS011;27206;47.032;15.484;2023-03-14T06:47:11;3.63;;;1.45;;
41468;SDS011;27206;47.032;15.484;2023-03-14T06:49:37;5.22;;;1.70;;
41468;SDS011;27206;47.032;15.484;2023-03-14T06:52:03;3.30;;;1.67;;
41468;SDS011;27206;47.032;15.484;2023-03-14T06:54:28;4.68;;;1.70;;
41468;SDS011;27206;47.032;15.484;2023-03-14T06:56:54;4.63;;;1.75;;
41468;SDS011;27206;47.032;15.484;2023-03-14T06:59:20;2.65;;;1.33;;
41468;SDS011;27206;47.032;15.484;2023-03-14T07:01:45;5.10;;;1.60;;
41468;SDS011;27206;47.032;15.484;2023-03-14T07:04:13;2.80;;;1.73;;
41468;SDS011;27206;47.032;15.484;2023-03-14T07:06:38;4.93;;;1.50;;
41468;SDS011;27206;47.032;15.484;2023-03-14T07:09:04;4.60;;;1.70;;
41468;SDS011;27206;47.032;15.484;2023-03-14T07:11:31;5.03;;;1.40;;
41468;SDS011;27206;47.032;15.484;2023-03-14T07:13:57;4.10;;;1.77;;
41468;SDS011;27206;47.032;15.484;2023-03-14T07:16:22;3.33;;;1.45;;
41468;SDS011;27206;47.032;15.484;2023-03-14T07:18:48;4.38;;;1.70;;
41468;SDS011;27206;47.032;15.484;2023-03-14T07:21:14;5.20;;;1.40;;
41468;SDS011;27206;47.032;15.484;2023-03-14T07:23:40;4.93;;;1.58;;
41468;SDS011;27206;47.032;15.484;2023-03-14T07:26:06;6.03;;;1.35;;
41468;SDS011;27206;47.032;15.484;2023-03-14T07:28:32;3.70;;;1.20;;
41468;SDS011;27206;47.032;15.484;2023-03-14T07:30:57;3.92;;;1.27;;
41468;SDS011;27206;47.032;15.484;2023-03-14T07:33:23;2.42;;;1.25;;
41468;SDS011;27206;47.032;15.484;2023-03-14T07:35:49;3.67;;;1.30;;
41468;SDS011;27206;47.032;15.484;2023-03-14T07:38:15;2.22;;;1.15;;
41468;SDS011;27206;47.032;15.484;2023-03-14T07:40:41;2.20;;;1.25;;
41468;SDS011;27206;47.032;15.484;2023-03-14T07:43:07;7.20;;;1.25;;
41468;SDS011;27206;47.032;15.484;2023-03-14T07:45:33;2.88;;;1.27;;
41468;SDS011;27206;47.032;15.484;2023-03-14T07:47:58;1.67;;;1.00;;
41468;SDS011;27206;47.032;15.484;2023-03-14T07:50:24;2.50;;;1.05;;
41468;SDS011;27206;47.032;15.484;2023-03-14T07:52:50;1.98;;;1.10;;
41468;SDS011;27206;47.032;15.484;2023-03-14T07:55:16;2.90;;;1.20;;
41468;SDS011;27206;47.032;15.484;2023-03-14T07:57:42;1.60;;;1.00;;
41468;SDS011;27206;47.032;15.484;2023-03-14T08:00:08;4.05;;;1.27;;
41468;SDS011;27206;47.032;15.484;2023-03-14T08:02:34;2.72;;;1.17;;
41468;SDS011;27206;47.032;15.484;2023-03-14T08:05:01;3.88;;;1.75;;
41468;SDS011;27206;47.032;15.484;2023-03-14T08:07:27;5.07;;;1.00;;
41468;SDS011;27206;47.032;15.484;2023-03-14T08:09:52;3.05;;;1.08;;
41468;SDS011;27206;47.032;15.484;2023-03-14T08:12:18;2.88;;;0.90;;
41468;SDS011;27206;47.032;15.484;2023-03-14T08:14:44;4.07;;;0.95;;
41468;SDS011;27206;47.032;15.484;2023-03-14T08:17:09;2.78;;;0.80;;
41468;SDS011;27206;47.032;15.484;2023-03-14T08:19:35;2.35;;;1.05;;
41468;SDS011;27206;47.032;15.484;2023-03-14T08:22:01;1.83;;;1.02;;
41468;SDS011;27206;47.032;15.484;2023-03-14T08:24:27;1.85;;;0.80;;
41468;SDS011;27206;47.032;15.484;2023-03-14T08:26:53;3.15;;;0.98;;
41468;SDS011;27206;47.032;15.484;2023-03-14T08:29:18;1.50;;;0.68;;
41468;SDS011;27206;47.032;15.484;2023-03-14T08:31:44;1.17;;;0.82;;
41468;SDS011;27206;47.032;15.484;2023-03-14T08:34:10;1.65;;;0.90;;
41468;SDS011;27206;47.032;15.484;2023-03-14T08:36:36;2.22;;;0.90;;
41468;SDS011;27206;47.032;15.484;2023-03-14T08:39:01;2.83;;;1.00;;
41468;SDS011;27206;47.032;15.484;2023-03-14T08:41:28;1.70;;;0.93;;
41468;SDS011;27206;47.032;15.484;2023-03-14T08:43:54;2.85;;;1.00;;
41468;SDS011;27206;47.032;15.484;2023-03-14T08:46:20;2.45;;;0.82;;
41468;SDS011;27206;47.032;15.484;2023-03-14T08:48:45;2.53;;;1.00;;
41468;SDS011;27206;47.032;15.484;2023-03-14T08:51:12;2.50;;;1.00;;
41468;SDS011;27206;47.032;15.484;2023-03-14T08:53:39;5.65;;;0.93;;
41468;SDS011;27206;47.032;15.484;2023-03-14T08:56:06;0.95;;;0.75;;
41468;SDS011;27206;47.032;15.484;2023-03-14T08:58:34;3.25;;;1.10;;
41468;SDS011;27206;47.032;15.484;2023-03-14T09:01:03;1.83;;;1.02;;
41468;SDS011;27206;47.032;15.484;2023-03-14T09:03:30;0.85;;;0.70;;
41468;SDS011;27206;47.032;15.484;2023-03-14T09:05:55;4.35;;;0.90;;
41468;SDS011;27206;47.032;15.484;2023-03-14T09:08:26;4.10;;;0.80;;
41468;SDS011;27206;47.032;15.484;2023-03-14T09:10:51;2.40;;;0.70;;
41468;SDS011;27206;47.032;15.484;2023-03-14T09:13:17;4.60;;;0.90;;
41468;SDS011;27206;47.032;15.484;2023-03-14T09:15:42;3.35;;;0.80;;
41468;SDS011;27206;47.032;15.484;2023-03-14T09:18:08;2.08;;;1.20;;
41468;SDS011;27206;47.032;15.484;2023-03-14T09:20:34;0.63;;;0.45;;
41468;SDS011;27206;47.032;15.484;2023-03-14T09:22:59;3.42;;;0.70;;
41468;SDS011;27206;47.032;15.484;2023-03-14T09:25:25;4.38;;;0.80;;
41468;SDS011;27206;47.032;15.484;2023-03-14T09:27:51;1.50;;;0.70;;
41468;SDS011;27206;47.032;15.484;2023-03-14T09:30:16;1.70;;;0.75;;
41468;SDS011;27206;47.032;15.484;2023-03-14T09:32:42;0.75;;;0.60;;
41468;SDS011;27206;47.032;15.484;2023-03-14T09:35:08;0.93;;;0.70;;
41468;SDS011;27206;47.032;15.484;2023-03-14T09:37:34;1.27;;;0.80;;
41468;SDS011;27206;47.032;15.484;2023-03-14T09:40:00;2.10;;;0.80;;
41468;SDS011;27206;47.032;15.484;2023-03-14T09:42:29;2.38;;;0.70;;
41468;SDS011;27206;47.032;15.484;2023-03-14T09:45:02;2.25;;;0.55;;
41468;SDS011;27206;47.032;15.484;2023-03-14T09:47:33;1.70;;;0.75;;
41468;SDS011;27206;47.032;15.484;2023-03-14T09:50:00;2.28;;;0.80;;
41468;SDS011;27206;47.032;15.484;2023-03-14T09:52:32;2.88;;;0.63;;
41468;SDS011;27206;47.032;15.484;2023-03-14T09:55:05;2.40;;;0.70;;
41468;SDS011;27206;47.032;15.484;2023-03-14T09:57:42;1.38;;;0.65;;
41468;SDS011;27206;47.032;15.484;2023-03-14T10:00:26;1.23;;;0.70;;
41468;SDS011;27206;47.032;15.484;2023-03-14T10:02:55;2.53;;;0.68;;
41468;SDS011;27206;47.032;15.484;2023-03-14T10:05:25;2.92;;;0.60;;
41468;SDS011;27206;47.032;15.484;2023-03-14T10:07:54;0.80;;;0.68;;
41468;SDS011;27206;47.032;15.484;2023-03-14T10:10:21;0.98;;;0.60;;
41468;SDS011;27206;47.032;15.484;2023-03-14T10:12:59;2.03;;;0.50;;
41468;SDS011;27206;47.032;15.484;2023-03-14T10:15:33;2.95;;;0.70;;
41468;SDS011;27206;47.032;15.484;2023-03-14T10:18:00;7.75;;;1.08;;
41468;SDS011;27206;47.032;15.484;2023-03-14T10:22:58;1.58;;;0.70;;
41468;SDS011;27206;47.032;15.484;2023-03-14T10:25:31;0.95;;;0.60;;
41468;SDS011;27206;47.032;15.484;2023-03-14T10:27:59;2.15;;;0.70;;
41468;SDS011;27206;47.032;15.484;2023-03-14T10:30:43;0.90;;;0.70;;
41468;SDS011;27206;47.032;15.484;2023-03-14T10:39:15;1.65;;;0.68;;
41468;SDS011;27206;47.032;15.484;2023-03-14T10:42:05;2.03;;;0.88;;
41468;SDS011;27206;47.032;15.484;2023-03-14T10:44:38;1.17;;;0.80;;
41468;SDS011;27206;47.032;15.484;2023-03-14T10:47:04;2.97;;;0.80;;
41468;SDS011;27206;47.032;15.484;2023-03-14T10:54:34;1.40;;;0.70;;
41468;SDS011;27206;47.032;15.484;2023-03-14T10:57:00;2.95;;;0.70;;
41468;SDS011;27206;47.032;15.484;2023-03-14T10:59:29;4.10;;;0.90;;
41468;SDS011;27206;47.032;15.484;2023-03-14T11:12:37;0.47;;;0.47;;
41468;SDS011;27206;47.032;15.484;2023-03-14T11:18:29;1.25;;;0.40;;
41468;SDS011;27206;47.032;15.484;2023-03-14T11:32:19;0.98;;;0.50;;
41468;SDS011;27206;47.032;15.484;2023-03-14T11:34:54;1.27;;;0.50;;
41468;SDS011;27206;47.032;15.484;2023-03-14T11:37:32;0.40;;;0.40;;
41468;SDS011;27206;47.032;15.484;2023-03-14T11:39:59;0.20;;;0.20;;
41468;SDS011;27206;47.032;15.484;2023-03-14T11:42:36;1.80;;;0.68;;
41468;SDS011;27206;47.032;15.484;2023-03-14T11:45:03;1.80;;;0.60;;
41468;SDS011;27206;47.032;15.484;2023-03-14T11:47:37;1.20;;;0.55;;
41468;SDS011;27206;47.032;15.484;2023-03-14T11:50:16;0.73;;;0.32;;
41468;SDS011;27206;47.032;15.484;2023-03-14T11:52:48;0.47;;;0.30;;
41468;SDS011;27206;47.032;15.484;2023-03-14T11:57:51;0.55;;;0.40;;
41468;SDS011;27206;47.032;15.484;2023-03-14T12:00:22;0.30;;;0.30;;
41468;SDS011;27206;47.032;15.484;2023-03-14T12:13:08;0.35;;;0.30;;
41468;SDS011;27206;47.032;15.484;2023-03-14T12:15:36;0.43;;;0.40;;
41468;SDS011;27206;47.032;15.484;2023-03-14T12:18:14;0.55;;;0.43;;
41468;SDS011;27206;47.032;15.484;2023-03-14T12:20:50;0.40;;;0.30;;
41468;SDS011;27206;47.032;15.484;2023-03-14T12:23:22;2.22;;;0.40;;
41468;SDS011;27206;47.032;15.484;2023-03-14T12:25:49;0.57;;;0.47;;
41468;SDS011;27206;47.032;15.484;2023-03-14T12:28:52;0.63;;;0.43;;
41468;SDS011;27206;47.032;15.484;2023-03-14T12:31:44;0.52;;;0.45;;
41468;SDS011;27206;47.032;15.484;2023-03-14T12:42:10;0.40;;;0.40;;
41468;SDS011;27206;47.032;15.484;2023-03-14T12:44:48;2.05;;;0.40;;
41468;SDS011;27206;47.032;15.484;2023-03-14T12:49:51;1.20;;;0.50;;
41468;SDS011;27206;47.032;15.484;2023-03-14T12:52:21;0.32;;;0.30;;
41468;SDS011;27206;47.032;15.484;2023-03-14T12:55:10;0.68;;;0.50;;
41468;SDS011;27206;47.032;15.484;2023-03-14T13:00:37;0.77;;;0.57;;
41468;SDS011;27206;47.032;15.484;2023-03-14T13:03:13;0.47;;;0.47;;
41468;SDS011;27206;47.032;15.484;2023-03-14T13:08:39;1.38;;;0.50;;
41468;SDS011;27206;47.032;15.484;2023-03-14T13:11:12;3.13;;;0.70;;
41468;SDS011;27206;47.032;15.484;2023-03-14T13:13:42;0.90;;;0.55;;
41468;SDS011;27206;47.032;15.484;2023-03-14T13:16:18;0.50;;;0.50;;
41468;SDS011;27206;47.032;15.484;2023-03-14T13:18:46;1.27;;;0.60;;
41468;SDS011;27206;47.032;15.484;2023-03-14T13:23:59;1.60;;;0.60;;
41468;SDS011;27206;47.032;15.484;2023-03-14T13:26:31;0.82;;;0.45;;
41468;SDS011;27206;47.032;15.484;2023-03-14T13:29:00;0.50;;;0.50;;
41468;SDS011;27206;47.032;15.484;2023-03-14T13:31:46;2.55;;;0.40;;
41468;SDS011;27206;47.032;15.484;2023-03-14T13:34:13;0.77;;;0.60;;
41468;SDS011;27206;47.032;15.484;2023-03-14T13:36:39;0.40;;;0.40;;
41468;SDS011;27206;47.032;15.484;2023-03-14T13:39:06;0.70;;;0.45;;
41468;SDS011;27206;47.032;15.484;2023-03-14T13:41:39;0.88;;;0.50;;
41468;SDS011;27206;47.032;15.484;2023-03-14T13:44:07;1.15;;;0.40;;
41468;SDS011;27206;47.032;15.484;2023-03-14T13:46:39;1.30;;;0.40;;
41468;SDS011;27206;47.032;15.484;2023-03-14T13:49:05;0.40;;;0.40;;
41468;SDS011;27206;47.032;15.484;2023-03-14T13:51:37;0.70;;;0.47;;
41468;SDS011;27206;47.032;15.484;2023-03-14T13:54:11;5.68;;;0.60;;
41468;SDS011;27206;47.032;15.484;2023-03-14T13:56:46;0.40;;;0.40;;
41468;SDS011;27206;47.032;15.484;2023-03-14T13:59:25;0.40;;;0.40;;
41468;SDS011;27206;47.032;15.484;2023-03-14T14:01:52;0.77;;;0.50;;
41468;SDS011;27206;47.032;15.484;2023-03-14T14:04:20;0.73;;;0.57;;
41468;SDS011;27206;47.032;15.484;2023-03-14T14:06:58;0.40;;;0.40;;
41468;SDS011;27206;47.032;15.484;2023-03-14T14:09:26;2.85;;;0.40;;
41468;SDS011;27206;47.032;15.484;2023-03-14T14:11:55;1.40;;;0.57;;
41468;SDS011;27206;47.032;15.484;2023-03-14T14:14:28;0.40;;;0.40;;
41468;SDS011;27206;47.032;15.484;2023-03-14T14:17:11;0.55;;;0.35;;
41468;SDS011;27206;47.032;15.484;2023-03-14T14:19:40;0.63;;;0.50;;
41468;SDS011;27206;47.032;15.484;2023-03-14T14:22:08;3.95;;;1.05;;
41468;SDS011;27206;47.032;15.484;2023-03-14T14:24:36;1.00;;;0.60;;
41468;SDS011;27206;47.032;15.484;2023-03-14T14:27:19;0.80;;;0.60;;
41468;SDS011;27206;47.032;15.484;2023-03-14T14:30:06;0.90;;;0.50;;
41468;SDS011;27206;47.032;15.484;2023-03-14T14:32:45;1.08;;;0.70;;
41468;SDS011;27206;47.032;15.484;2023-03-14T14:35:25;0.88;;;0.50;;
41468;SDS011;27206;47.032;15.484;2023-03-14T14:37:55;8.35;;;1.42;;
41468;SDS011;27206;47.032;15.484;2023-03-14T14:40:25;2.60;;;1.35;;
41468;SDS011;27206;47.032;15.484;2023-03-14T14:42:53;2.75;;;1.10;;
41468;SDS011;27206;47.032;15.484;2023-03-14T14:45:21;1.77;;;0.95;;
41468;SDS011;27206;47.032;15.484;2023-03-14T14:53:01;2.17;;;0.80;;
41468;SDS011;27206;47.032;15.484;2023-03-14T14:55:32;2.20;;;0.68;;
41468;SDS011;27206;47.032;15.484;2023-03-14T14:58:39;0.98;;;0.50;;
41468;SDS011;27206;47.032;15.484;2023-03-14T15:01:19;2.25;;;0.50;;
41468;SDS011;27206;47.032;15.484;2023-03-14T15:03:49;1.60;;;0.90;;
41468;SDS011;27206;47.032;15.484;2023-03-14T15:06:17;2.83;;;0.55;;
41468;SDS011;27206;47.032;15.484;2023-03-14T15:08:45;1.73;;;0.70;;
41468;SDS011;27206;47.032;15.484;2023-03-14T15:11:16;1.13;;;0.50;;
41468;SDS011;27206;47.032;15.484;2023-03-14T15:13:47;1.98;;;0.40;;
41468;SDS011;27206;47.032;15.484;2023-03-14T15:16:18;1.73;;;0.50;;
41468;SDS011;27206;47.032;15.484;2023-03-14T15:18:47;2.30;;;0.68;;
41468;SDS011;27206;47.032;15.484;2023-03-14T15:21:17;1.98;;;0.57;;
41468;SDS011;27206;47.032;15.484;2023-03-14T15:23:43;2.40;;;0.65;;
41468;SDS011;27206;47.032;15.484;2023-03-14T15:26:19;1.45;;;0.43;;
41468;SDS011;27206;47.032;15.484;2023-03-14T15:28:47;2.45;;;0.63;;
41468;SDS011;27206;47.032;15.484;2023-03-14T15:31:14;2.35;;;0.80;;
41468;SDS011;27206;47.032;15.484;2023-03-14T15:33:41;1.60;;;0.60;;
41468;SDS011;27206;47.032;15.484;2023-03-14T15:36:25;1.23;;;0.52;;
41468;SDS011;27206;47.032;15.484;2023-03-14T15:38:56;5.25;;;0.82;;
41468;SDS011;27206;47.032;15.484;2023-03-14T15:41:24;4.65;;;0.70;;
41468;SDS011;27206;47.032;15.484;2023-03-14T15:43:51;1.35;;;0.45;;
41468;SDS011;27206;47.032;15.484;2023-03-14T15:46:17;2.65;;;0.60;;
41468;SDS011;27206;47.032;15.484;2023-03-14T15:48:43;1.85;;;0.70;;
41468;SDS011;27206;47.032;15.484;2023-03-14T15:51:10;3.90;;;0.73;;
41468;SDS011;27206;47.032;15.484;2023-03-14T15:53:36;1.23;;;0.60;;
41468;SDS011;27206;47.032;15.484;2023-03-14T15:56:03;2.10;;;0.63;;
41468;SDS011;27206;47.032;15.484;2023-03-14T15:58:30;1.60;;;0.60;;
41468;SDS011;27206;47.032;15.484;2023-03-14T16:00:58;2.40;;;0.93;;
41468;SDS011;27206;47.032;15.484;2023-03-14T16:03:25;0.55;;;0.52;;
41468;SDS011;27206;47.032;15.484;2023-03-14T16:05:52;1.42;;;0.60;;